Time;durP1;ratioP1;P1;durP2;ratioP2;P2;SDS_P1;SDS_P2;PMS_P1;PMS_P2;Temp;Humidity;BMP_temperature;BMP_pressure;BME280_temperature;BME280_humidity;BME280_pressure;Samples;Min_cycle;Max_cycle;Signal;HPM_P1;HPM_P2
2022/08/25 00:00:06;;;;;;;7.70;6.93;;;;;;;19.60;100.00;101381.38;1946918;28;20053;-66
2022/08/25 00:01:14;;;;;;;8.48;6.53;;;;;;;19.56;100.00;101378.94;1947131;29;20034;-67
2022/08/25 00:02:12;;;;;;;7.63;6.90;;;;;;;19.53;100.00;101384.44;1947612;28;20094;-66
2022/08/25 00:03:11;;;;;;;8.35;6.82;;;;;;;19.50;100.00;101376.72;1947694;28;20450;-66
2022/08/25 00:04:12;;;;;;;8.18;7.45;;;;;;;19.50;100.00;101382.00;1947702;28;20034;-66
2022/08/25 00:05:10;;;;;;;6.97;6.25;;;;;;;19.49;100.00;101375.03;1947042;28;20027;-66
2022/08/25 00:06:09;;;;;;;7.18;6.55;;;;;;;19.50;100.00;101376.72;1947083;29;20483;-67
2022/08/25 00:07:07;;;;;;;8.05;7.25;;;;;;;19.49;100.00;101375.03;1947682;29;20038;-66
2022/08/25 00:08:06;;;;;;;8.27;7.47;;;;;;;19.48;100.00;101377.78;1947525;28;20054;-66
2022/08/25 00:09:07;;;;;;;8.35;7.10;;;;;;;19.49;100.00;101380.34;1947559;28;20031;-66
2022/08/25 00:10:06;;;;;;;8.60;7.80;;;;;;;19.48;100.00;101378.66;1947714;28;20031;-66
2022/08/25 00:11:15;;;;;;;7.53;6.93;;;;;;;19.37;100.00;101379.41;1947607;28;20027;-66
2022/08/25 00:12:12;;;;;;;8.40;7.35;;;;;;;19.39;100.00;101384.59;1947562;28;20027;-66
2022/08/25 00:13:10;;;;;;;9.48;7.30;;;;;;;19.37;100.00;101382.03;1947659;28;20031;-66
2022/08/25 00:14:14;;;;;;;8.35;7.57;;;;;;;19.37;100.00;101382.03;1947764;28;20460;-66
2022/08/25 00:15:12;;;;;;;8.48;7.57;;;;;;;19.36;100.00;101377.72;1947475;28;20027;-66
2022/08/25 00:16:12;;;;;;;8.80;7.72;;;;;;;19.32;100.00;101378.06;1947628;28;20042;-66
2022/08/25 00:17:09;;;;;;;8.60;7.90;;;;;;;19.32;100.00;101372.78;1947547;28;20110;-66
2022/08/25 00:18:06;;;;;;;7.80;7.10;;;;;;;19.30;100.00;101379.00;1947735;28;20372;-66
2022/08/25 00:19:12;;;;;;;8.15;7.30;;;;;;;19.32;100.00;101384.19;1947588;28;20031;-66
2022/08/25 00:20:10;;;;;;;7.68;7.05;;;;;;;19.32;100.00;101378.06;1954396;28;20050;-66
2022/08/25 00:21:08;;;;;;;13.10;7.15;;;;;;;19.30;100.00;101379.00;1954559;28;20031;-66
2022/08/25 00:22:06;;;;;;;9.70;7.60;;;;;;;19.29;100.00;101373.81;1948367;28;20026;-66
2022/08/25 00:23:04;;;;;;;8.38;7.68;;;;;;;19.29;100.00;101374.66;1947501;28;20035;-66
2022/08/25 00:24:02;;;;;;;8.65;7.85;;;;;;;19.27;100.00;101373.91;1947537;28;20019;-66
2022/08/25 00:24:59;;;;;;;11.02;8.45;;;;;;;19.26;100.00;101376.72;1947516;28;20027;-66
2022/08/25 00:25:57;;;;;;;8.98;8.07;;;;;;;19.25;100.00;101373.19;1947717;28;20050;-66
2022/08/25 00:26:57;;;;;;;10.35;8.07;;;;;;;19.25;100.00;101372.34;1945846;28;20033;-67
2022/08/25 00:27:55;;;;;;;9.18;8.27;;;;;;;19.23;100.00;101374.28;1947602;28;20487;-66
2022/08/25 00:28:53;;;;;;;8.38;7.68;;;;;;;19.24;100.00;101376.81;1947474;28;20513;-67
2022/08/25 00:29:51;;;;;;;9.10;8.23;;;;;;;19.21;100.00;101374.38;1947519;28;20037;-67
2022/08/25 00:30:49;;;;;;;10.35;9.27;;;;;;;19.21;100.00;101371.72;1947542;28;20027;-66
2022/08/25 00:31:47;;;;;;;8.95;8.13;;;;;;;19.20;100.00;101380.63;1947327;28;20062;-66
2022/08/25 00:32:45;;;;;;;9.60;8.00;;;;;;;19.21;100.00;101381.47;1946820;29;20023;-66
2022/08/25 00:33:46;;;;;;;8.45;7.68;;;;;;;19.19;100.00;101378.91;1946829;29;20502;-66
2022/08/25 00:34:44;;;;;;;10.43;8.75;;;;;;;19.19;100.00;101383.38;1954107;28;20034;-66
2022/08/25 00:35:42;;;;;;;12.65;10.15;;;;;;;19.17;100.00;101381.66;1947872;28;20023;-66
2022/08/25 00:36:40;;;;;;;11.20;9.27;;;;;;;19.13;100.00;101382.00;1947531;29;20042;-66
2022/08/25 00:37:38;;;;;;;9.65;8.65;;;;;;;19.14;100.00;101378.41;1946761;28;20039;-66
2022/08/25 00:38:36;;;;;;;11.25;9.00;;;;;;;19.12;100.00;101377.66;1946931;29;20041;-66
2022/08/25 00:39:35;;;;;;;12.30;9.52;;;;;;;19.12;100.00;101382.94;1947300;28;20024;-67
2022/08/25 00:40:33;;;;;;;10.50;9.60;;;;;;;19.10;100.00;101380.44;1947524;28;20037;-67
2022/08/25 00:41:30;;;;;;;11.10;10.10;;;;;;;19.10;100.00;101379.56;1947373;28;20034;-67
2022/08/25 00:42:28;;;;;;;10.65;9.75;;;;;;;19.08;100.00;101384.13;1947510;29;20035;-66
2022/08/25 00:43:26;;;;;;;10.65;9.57;;;;;;;19.08;100.00;101381.47;1947403;28;20035;-66
2022/08/25 00:44:29;;;;;;;10.10;9.10;;;;;;;19.04;100.00;101384.31;1947352;28;20440;-66
2022/08/25 00:45:26;;;;;;;11.73;10.52;;;;;;;19.04;100.00;101386.97;1947418;28;20043;-66
2022/08/25 00:46:53;;;;;;;12.23;10.13;;;;;;;19.01;100.00;101381.88;1947306;28;20027;-67
2022/08/25 00:47:51;;;;;;;10.90;9.80;;;;;;;18.95;100.00;101389.41;1946658;29;20158;-66
2022/08/25 00:48:59;;;;;;;10.80;9.88;;;;;;;18.96;100.00;101386.66;1946843;29;20031;-67
2022/08/25 00:50:01;;;;;;;12.13;10.10;;;;;;;18.94;100.00;101380.63;1947301;28;20579;-66
2022/08/25 00:51:03;;;;;;;11.40;10.25;;;;;;;18.92;100.00;101378.06;1946798;28;20387;-66
2022/08/25 00:52:15;;;;;;;12.05;10.73;;;;;;;18.89;100.00;101377.47;1946779;28;20030;-66
2022/08/25 00:53:12;;;;;;;11.07;10.07;;;;;;;18.88;100.00;101375.75;1947372;28;20035;-66
2022/08/25 00:54:21;;;;;;;11.73;10.68;;;;;;;18.86;100.00;101381.16;1947253;28;20031;-66
2022/08/25 00:55:35;;;;;;;10.95;10.05;;;;;;;18.83;100.00;101383.16;1946769;28;20054;-66
2022/08/25 00:56:34;;;;;;;12.25;10.98;;;;;;;18.79;100.00;101386.00;1947826;28;20023;-66
2022/08/25 00:57:44;;;;;;;11.82;10.23;;;;;;;18.79;100.00;101385.19;1952056;28;20113;-66
2022/08/25 00:58:42;;;;;;;11.02;10.00;;;;;;;18.76;100.00;101382.75;1947278;28;20059;-66
2022/08/25 00:59:40;;;;;;;10.65;9.68;;;;;;;18.76;100.00;101383.59;1946704;29;20127;-66
2022/08/25 01:00:44;;;;;;;12.27;10.98;;;;;;;18.74;100.00;101377.56;1946696;29;20027;-66
2022/08/25 01:01:42;;;;;;;12.73;11.38;;;;;;;18.71;100.00;101380.41;1947262;28;20041;-66
2022/08/25 01:02:40;;;;;;;11.07;10.00;;;;;;;18.71;100.00;101377.75;1947253;28;20046;-66
2022/08/25 01:03:37;;;;;;;12.10;10.48;;;;;;;18.71;100.00;101376.94;1947261;29;20043;-66
2022/08/25 01:04:36;;;;;;;12.25;9.60;;;;;;;18.69;100.00;101382.31;1947204;29;20136;-66
2022/08/25 01:05:35;;;;;;;11.25;10.18;;;;;;;18.68;100.00;101379.78;1947275;28;20061;-66
2022/08/25 01:06:39;;;;;;;11.95;10.75;;;;;;;18.64;100.00;101380.00;1947198;29;20482;-67
2022/08/25 01:07:40;;;;;;;12.80;11.63;;;;;;;18.61;100.00;101374.09;1947206;29;20040;-67
2022/08/25 01:08:37;;;;;;;15.02;12.27;;;;;;;18.58;100.00;101384.84;1947066;29;20547;-67
2022/08/25 01:09:37;;;;;;;13.38;11.98;;;;;;;18.55;100.00;101378.00;1947306;29;20038;-67
2022/08/25 01:10:40;;;;;;;12.88;11.63;;;;;;;18.57;100.00;101377.88;1947282;29;20063;-67
2022/08/25 01:11:37;;;;;;;14.75;12.02;;;;;;;18.57;100.00;101377.88;1947291;29;20023;-66
2022/08/25 01:12:36;;;;;;;13.35;12.02;;;;;;;18.57;100.00;101377.88;1947219;29;20125;-67
2022/08/25 01:13:44;;;;;;;13.55;11.43;;;;;;;18.55;100.00;101375.34;1947236;29;20402;-66
2022/08/25 01:14:45;;;;;;;12.80;11.70;;;;;;;18.55;100.00;101375.34;1947129;28;20026;-66
2022/08/25 01:15:48;;;;;;;12.73;11.40;;;;;;;18.56;100.00;101370.88;1947193;29;20100;-67
2022/08/25 01:16:47;;;;;;;12.48;11.43;;;;;;;18.51;100.00;101377.34;1946396;29;20020;-66
2022/08/25 01:17:53;;;;;;;13.48;12.18;;;;;;;18.50;100.00;101378.28;1946585;29;20030;-66
2022/08/25 01:18:57;;;;;;;13.02;11.82;;;;;;;18.49;100.00;101376.59;1947200;28;20475;-66
2022/08/25 01:19:54;;;;;;;11.82;10.77;;;;;;;18.47;100.00;101373.22;1947385;29;20027;-66
2022/08/25 01:20:57;;;;;;;11.88;10.55;;;;;;;18.47;100.00;101373.22;1947084;29;20051;-67
2022/08/25 01:21:55;;;;;;;11.40;10.32;;;;;;;18.45;100.00;101368.97;1946426;29;20121;-66
2022/08/25 01:22:53;;;;;;;13.55;10.82;;;;;;;18.44;100.00;101373.41;1946582;29;20027;-66
2022/08/25 01:23:54;;;;;;;12.32;11.13;;;;;;;18.40;100.00;101375.44;1953399;28;20100;-66
2022/08/25 01:25:24;;;;;;;12.00;10.82;;;;;;;18.37;100.00;101377.44;1954129;28;20086;-67
2022/08/25 01:26:26;;;;;;;12.68;11.38;;;;;;;18.28;100.00;101374.44;1947177;28;20041;-67
2022/08/25 01:27:24;;;;;;;12.60;11.32;;;;;;;18.28;100.00;101374.44;1944586;29;20048;-66
2022/08/25 01:28:22;;;;;;;13.00;11.77;;;;;;;18.26;100.00;101371.06;1954034;28;20117;-67
2022/08/25 01:29:24;;;;;;;13.90;12.02;;;;;;;18.25;100.00;101365.88;1954039;28;20580;-67
2022/08/25 01:30:23;;;;;;;13.10;11.95;;;;;;;18.27;100.00;101372.75;1947228;28;20047;-66
2022/08/25 01:31:20;;;;;;;15.60;11.80;;;;;;;18.26;100.00;101371.06;1947314;28;20027;-66
2022/08/25 01:32:18;;;;;;;11.98;10.77;;;;;;;18.25;100.00;101372.03;1946950;28;20110;-66
2022/08/25 01:33:16;;;;;;;12.38;11.27;;;;;;;18.25;100.00;101372.03;1947005;28;20368;-67
2022/08/25 01:34:17;;;;;;;12.23;11.02;;;;;;;18.25;100.00;101369.38;1947012;29;20023;-67
2022/08/25 01:35:15;;;;;;;12.27;11.25;;;;;;;18.24;100.00;101382.69;1954063;28;20061;-67
2022/08/25 01:36:17;;;;;;;12.60;11.27;;;;;;;18.24;100.00;101377.41;1954062;28;20310;-67
2022/08/25 01:37:17;;;;;;;13.35;11.45;;;;;;;18.22;100.00;101372.22;1947204;28;20035;-67
2022/08/25 01:38:16;;;;;;;12.65;10.75;;;;;;;18.20;100.00;101368.81;1953945;28;20052;-66
2022/08/25 01:39:14;;;;;;;12.15;11.02;;;;;;;18.20;100.00;101371.47;1954118;28;20026;-66
2022/08/25 01:40:12;;;;;;;14.05;11.43;;;;;;;18.18;100.00;101368.09;1953967;28;20037;-66
2022/08/25 01:41:09;;;;;;;11.35;10.35;;;;;;;18.17;100.00;101381.41;1947739;28;20038;-66
2022/08/25 01:42:08;;;;;;;12.93;11.65;;;;;;;18.13;100.00;101372.81;1946909;29;20042;-66
2022/08/25 01:43:16;;;;;;;12.45;11.18;;;;;;;18.15;100.00;101373.56;1947082;28;20042;-67
2022/08/25 01:44:16;;;;;;;11.63;10.50;;;;;;;18.11;100.00;101369.44;1946928;28;20038;-66
2022/08/25 01:45:14;;;;;;;11.60;10.60;;;;;;;18.09;100.00;101371.31;1946945;29;20031;-67
2022/08/25 01:46:11;;;;;;;14.57;10.93;;;;;;;18.09;100.00;101366.91;1946885;29;20494;-67
2022/08/25 01:47:09;;;;;;;12.20;11.00;;;;;;;18.09;100.00;101373.97;1946970;29;20035;-66
2022/08/25 01:48:08;;;;;;;12.10;10.85;;;;;;;18.06;100.00;101368.88;1946974;29;20065;-66
2022/08/25 01:49:06;;;;;;;12.85;11.55;;;;;;;18.05;100.00;101370.66;1946906;29;20057;-66
2022/08/25 01:50:06;;;;;;;12.50;11.20;;;;;;;18.05;100.00;101372.44;1946933;29;20027;-67
2022/08/25 01:51:03;;;;;;;12.63;11.32;;;;;;;18.01;100.00;101364.75;1946974;28;20031;-66
2022/08/25 01:52:27;;;;;;;12.20;11.10;;;;;;;17.98;100.00;101372.00;1946934;29;20526;-67
2022/08/25 01:53:30;;;;;;;11.95;10.90;;;;;;;17.96;100.00;101369.47;1946760;28;20054;-67
2022/08/25 01:54:27;;;;;;;12.98;11.60;;;;;;;17.96;100.00;101374.75;1946803;29;20055;-66
2022/08/25 01:55:25;;;;;;;14.73;11.07;;;;;;;17.97;100.00;101375.59;1946950;29;20042;-66
2022/08/25 01:56:23;;;;;;;11.50;10.30;;;;;;;17.96;100.00;101374.75;1946885;28;20034;-67
2022/08/25 01:57:21;;;;;;;12.80;11.43;;;;;;;17.97;100.00;101371.16;1944505;29;20023;-66
2022/08/25 01:58:25;;;;;;;13.95;11.02;;;;;;;17.96;100.00;101368.66;1946880;28;20027;-67
2022/08/25 01:59:24;;;;;;;11.93;10.82;;;;;;;17.95;100.00;101372.22;1946775;28;20027;-66
2022/08/25 02:00:23;;;;;;;12.13;11.00;;;;;;;17.92;100.00;101367.97;1946850;29;20525;-66
2022/08/25 02:01:23;;;;;;;12.73;11.48;;;;;;;17.93;100.00;101374.94;1946105;29;20034;-66
2022/08/25 02:02:20;;;;;;;;;;;;;;;17.84;100.00;101370.28;1946756;29;20031;-66
2022/08/25 02:03:18;;;;;;;11.70;10.60;;;;;;;17.82;100.00;101372.19;1953754;28;19910;-66
2022/08/25 02:04:16;;;;;;;12.52;11.23;;;;;;;17.85;100.00;101361.41;1953858;28;20035;-66
2022/08/25 02:05:18;;;;;;;12.05;10.98;;;;;;;17.85;100.00;101364.03;1947502;28;20482;-66
2022/08/25 02:06:24;;;;;;;13.30;11.15;;;;;;;17.87;100.00;101370.09;1953821;28;20033;-67
2022/08/25 02:07:21;;;;;;;11.95;10.73;;;;;;;17.84;100.00;101372.91;1953508;28;20065;-67
2022/08/25 02:08:21;;;;;;;11.48;10.40;;;;;;;17.85;100.00;101371.97;1946823;29;20049;-66
2022/08/25 02:09:19;;;;;;;;;;;;;;;17.74;100.00;101362.97;1947134;29;20035;-66
2022/08/25 02:10:16;;;;;;;11.80;10.70;;;;;;;17.76;100.00;101366.34;1946879;28;19910;-67
2022/08/25 02:11:14;;;;;;;10.68;9.65;;;;;;;17.80;100.00;101363.50;1946764;29;20143;-66
2022/08/25 02:12:11;;;;;;;11.75;10.68;;;;;;;17.79;100.00;101367.94;1946805;28;20027;-67
2022/08/25 02:13:09;;;;;;;12.30;11.20;;;;;;;17.76;100.00;101368.97;1953654;28;20233;-66
2022/08/25 02:14:08;;;;;;;11.88;10.77;;;;;;;17.75;100.00;101369.94;1953844;28;20033;-66
2022/08/25 02:15:07;;;;;;;12.95;11.23;;;;;;;17.76;100.00;101371.63;1946935;28;20102;-67
2022/08/25 02:16:08;;;;;;;11.60;10.60;;;;;;;17.76;100.00;101368.97;1946786;29;20133;-67
2022/08/25 02:17:05;;;;;;;12.68;10.85;;;;;;;17.77;100.00;101365.38;1946062;29;20052;-67
2022/08/25 02:18:03;;;;;;;11.80;10.48;;;;;;;17.79;100.00;101364.47;1946178;29;20059;-66
2022/08/25 02:19:01;;;;;;;11.77;10.50;;;;;;;17.76;100.00;101363.69;1953787;28;20515;-66
2022/08/25 02:19:58;;;;;;;12.60;10.43;;;;;;;17.76;100.00;101366.34;1953775;28;20085;-67
2022/08/25 02:20:56;;;;;;;13.98;10.60;;;;;;;17.76;100.00;101366.34;1947369;28;20471;-67
2022/08/25 02:21:54;;;;;;;11.65;10.55;;;;;;;17.76;100.00;101363.69;1946612;29;20062;-66
2022/08/25 02:22:52;;;;;;;12.30;10.40;;;;;;;17.76;100.00;101363.69;1946880;28;20112;-66
2022/08/25 02:23:50;;;;;;;10.93;9.82;;;;;;;17.74;100.00;101360.34;1946671;29;20038;-66
2022/08/25 02:24:48;;;;;;;11.90;10.30;;;;;;;17.75;100.00;101354.09;1946872;28;20062;-67
2022/08/25 02:25:46;;;;;;;11.10;10.02;;;;;;;17.73;100.00;101363.91;1946793;29;20031;-66
2022/08/25 02:26:43;;;;;;;11.93;10.15;;;;;;;17.73;100.00;101358.63;1953700;28;20018;-66
2022/08/25 02:27:40;;;;;;;10.60;9.70;;;;;;;17.71;100.00;101359.66;1951397;28;20134;-67
2022/08/25 02:28:38;;;;;;;11.82;10.30;;;;;;;17.71;100.00;101360.53;1947516;28;20136;-67
2022/08/25 02:29:36;;;;;;;11.48;10.27;;;;;;;17.71;100.00;101365.81;1946706;29;20038;-67
2022/08/25 02:30:38;;;;;;;11.88;9.38;;;;;;;17.70;100.00;101369.41;1953611;28;20029;-67
2022/08/25 02:31:36;;;;;;;12.25;10.43;;;;;;;17.68;100.00;101363.34;1953601;28;20027;-66
2022/08/25 02:32:34;;;;;;;10.90;9.80;;;;;;;17.65;100.00;101360.91;1953674;28;20062;-66
2022/08/25 02:33:31;;;;;;;11.40;9.88;;;;;;;17.66;100.00;101352.06;1947296;28;20158;-67
2022/08/25 02:34:28;;;;;;;10.65;9.65;;;;;;;17.67;100.00;101363.44;1946765;28;20364;-67
2022/08/25 02:35:26;;;;;;;10.40;9.48;;;;;;;17.66;100.00;101357.34;1946900;29;20038;-67
2022/08/25 02:36:24;;;;;;;10.70;9.70;;;;;;;17.63;100.00;101357.53;1946065;28;20039;-67
2022/08/25 02:37:21;;;;;;;11.63;9.98;;;;;;;17.61;100.00;101356.78;1945981;28;20043;-66
2022/08/25 02:38:19;;;;;;;11.10;9.93;;;;;;;17.63;100.00;101357.53;1946653;29;20352;-66
2022/08/25 02:39:16;;;;;;;10.75;9.65;;;;;;;17.63;100.00;101352.25;1946672;28;20038;-67
2022/08/25 02:40:13;;;;;;;12.10;10.15;;;;;;;17.64;100.00;101359.22;1946566;28;20038;-66
2022/08/25 02:41:15;;;;;;;10.65;9.65;;;;;;;17.62;100.00;101356.69;1946731;29;20556;-66
2022/08/25 02:42:13;;;;;;;12.25;9.82;;;;;;;17.58;100.00;101354.31;1946685;28;20067;-67
2022/08/25 02:43:11;;;;;;;11.52;10.10;;;;;;;17.59;100.00;101354.22;1946651;28;20036;-66
2022/08/25 02:44:08;;;;;;;11.05;9.95;;;;;;;17.59;100.00;101362.16;1946715;29;20509;-67
2022/08/25 02:45:06;;;;;;;10.30;9.18;;;;;;;17.59;100.00;101361.31;1946637;28;20034;-67
2022/08/25 02:46:04;;;;;;;11.43;10.30;;;;;;;17.60;100.00;101357.72;1946591;28;20084;-67
2022/08/25 02:47:02;;;;;;;10.77;9.63;;;;;;;17.63;100.00;101361.00;1945902;29;20029;-67
2022/08/25 02:47:59;;;;;;;10.77;9.57;;;;;;;17.65;100.00;101358.25;1946132;29;20038;-66
2022/08/25 02:48:57;;;;;;;10.70;9.10;;;;;;;17.66;100.00;101357.34;1946458;29;20027;-66
2022/08/25 02:49:55;;;;;;;14.52;9.50;;;;;;;17.66;100.00;101357.34;1946631;28;20062;-66
2022/08/25 02:50:52;;;;;;;11.07;9.20;;;;;;;17.66;100.00;101357.34;1946630;28;20012;-67
2022/08/25 02:51:50;;;;;;;14.48;9.18;;;;;;;17.66;100.00;101362.63;1946594;28;20065;-67
2022/08/25 02:52:49;;;;;;;11.32;9.15;;;;;;;17.66;100.00;101359.97;1946645;28;20031;-66
2022/08/25 02:53:47;;;;;;;9.98;8.88;;;;;;;17.66;100.00;101349.44;1946649;28;20619;-67
2022/08/25 02:54:44;;;;;;;9.70;8.73;;;;;;;17.65;100.00;101353.00;1946049;28;20039;-67
2022/08/25 02:55:41;;;;;;;10.25;8.90;;;;;;;17.65;100.00;101350.34;1953569;28;20120;-66
2022/08/25 02:56:41;;;;;;;10.50;9.45;;;;;;;17.63;100.00;101350.44;1953780;28;20038;-67
2022/08/25 02:57:40;;;;;;;9.82;8.95;;;;;;;17.61;100.00;101344.44;1944868;28;20650;-67
2022/08/25 02:58:40;;;;;;;11.60;9.65;;;;;;;17.60;100.00;101347.16;1946642;28;20034;-67
2022/08/25 02:59:38;;;;;;;10.38;9.40;;;;;;;17.61;100.00;101348.84;1946601;28;20546;-66
2022/08/25 03:00:36;;;;;;;13.07;9.32;;;;;;;17.58;100.00;101339.34;1946661;28;20122;-67
2022/08/25 03:01:34;;;;;;;13.77;9.60;;;;;;;17.58;100.00;101343.78;1946512;28;20042;-66
2022/08/25 03:02:31;;;;;;;10.52;9.38;;;;;;;17.58;100.00;101342.00;1946631;28;20034;-67
2022/08/25 03:03:29;;;;;;;10.93;9.25;;;;;;;17.60;100.00;101342.75;1953457;28;20043;-67
2022/08/25 03:04:27;;;;;;;10.63;9.40;;;;;;;17.59;100.00;101345.50;1953657;28;20101;-67
2022/08/25 03:05:25;;;;;;;9.82;8.85;;;;;;;17.61;100.00;101338.31;1947146;28;20035;-67
2022/08/25 03:06:23;;;;;;;11.05;9.20;;;;;;;17.58;100.00;101341.13;1946665;28;20522;-67
2022/08/25 03:07:21;;;;;;;11.10;9.68;;;;;;;17.56;100.00;101345.69;1953562;28;20545;-67
2022/08/25 03:08:18;;;;;;;10.35;9.25;;;;;;;17.59;100.00;101342.84;1953518;28;20035;-66
2022/08/25 03:09:16;;;;;;;11.68;9.20;;;;;;;17.59;100.00;101345.50;1947428;28;20031;-66
2022/08/25 03:10:18;;;;;;;10.60;9.55;;;;;;;17.57;100.00;101342.94;1946495;28;20035;-66
2022/08/25 03:11:16;;;;;;;12.15;9.07;;;;;;;17.56;100.00;101345.69;1946672;28;20027;-66
2022/08/25 03:12:14;;;;;;;11.68;9.15;;;;;;;17.56;100.00;101340.41;1946519;28;20027;-67
2022/08/25 03:13:11;;;;;;;9.57;8.30;;;;;;;17.54;100.00;101340.50;1946628;28;20131;-67
2022/08/25 03:14:09;;;;;;;9.45;8.52;;;;;;;17.54;100.00;101337.84;1953516;28;20177;-66
2022/08/25 03:15:15;;;;;;;9.07;8.25;;;;;;;17.54;100.00;101337.00;1953653;28;20027;-67
2022/08/25 03:16:13;;;;;;;12.57;9.15;;;;;;;17.50;100.00;101334.59;1946484;28;20027;-66
2022/08/25 03:17:10;;;;;;;14.20;9.15;;;;;;;17.52;100.00;101328.34;1946570;28;20449;-66
2022/08/25 03:18:10;;;;;;;13.45;9.35;;;;;;;17.52;100.00;101333.63;1946546;28;20479;-67
2022/08/25 03:19:07;;;;;;;10.60;9.13;;;;;;;17.49;100.00;101329.41;1946651;28;20019;-66
2022/08/25 03:20:06;;;;;;;11.27;8.82;;;;;;;17.49;100.00;101330.22;1946462;28;20038;-66
2022/08/25 03:21:04;;;;;;;10.38;9.13;;;;;;;17.46;100.00;101330.44;1946769;28;20505;-66
2022/08/25 03:22:02;;;;;;;9.85;8.68;;;;;;;17.45;100.00;101334.00;1946425;28;20033;-67
2022/08/25 03:22:59;;;;;;;16.52;9.13;;;;;;;17.44;100.00;101331.47;1946545;28;20031;-66
2022/08/25 03:23:58;;;;;;;10.05;9.02;;;;;;;17.43;100.00;101325.38;1953432;28;20054;-67
2022/08/25 03:26:52;;;;;;;10.27;9.07;;;;;;;17.37;100.00;101325.75;1953502;28;20026;-67
2022/08/25 03:27:29;;;;;;;10.18;9.10;;;;;;;17.37;100.00;101321.31;1945127;29;20137;-66
2022/08/25 03:28:26;;;;;;;11.73;9.70;;;;;;;17.38;100.00;101327.44;1947823;28;20034;-67
2022/08/25 03:29:29;;;;;;;11.55;9.07;;;;;;;17.43;100.00;101325.38;1947985;28;20515;-67
2022/08/25 03:30:27;;;;;;;11.27;8.80;;;;;;;17.41;100.00;101319.31;1947903;28;20061;-67
2022/08/25 03:31:26;;;;;;;12.38;9.40;;;;;;;17.45;100.00;101323.47;1947935;28;20046;-66
2022/08/25 03:32:23;;;;;;;10.35;8.50;;;;;;;17.43;100.00;101325.38;1947880;28;20138;-67
2022/08/25 03:33:21;;;;;;;9.80;8.85;;;;;;;17.42;100.00;101322.81;1948074;28;20031;-66
2022/08/25 03:34:20;;;;;;;11.82;8.90;;;;;;;17.39;100.00;101318.59;1947984;28;20030;-67
2022/08/25 03:35:18;;;;;;;12.05;9.00;;;;;;;17.43;100.00;101325.38;1947313;29;20518;-66
2022/08/25 03:36:16;;;;;;;11.93;9.38;;;;;;;17.39;100.00;101323.88;1947404;29;20070;-66
2022/08/25 03:37:13;;;;;;;13.05;9.63;;;;;;;17.44;100.00;101321.78;1947658;29;20120;-66
2022/08/25 03:38:11;;;;;;;12.15;9.05;;;;;;;17.45;100.00;101320.81;1954950;28;20202;-66
2022/08/25 03:39:09;;;;;;;9.45;8.55;;;;;;;17.48;100.00;101317.13;1954728;28;20026;-66
2022/08/25 03:40:10;;;;;;;12.02;8.55;;;;;;;17.50;100.00;101324.03;1948107;28;20035;-65
2022/08/25 03:41:21;;;;;;;14.07;8.77;;;;;;;17.50;100.00;101325.81;1947855;29;20450;-65
2022/08/25 03:42:18;;;;;;;16.38;9.18;;;;;;;17.48;100.00;101320.63;1947878;28;20027;-65
2022/08/25 03:43:17;;;;;;;9.90;8.68;;;;;;;17.52;100.00;101317.78;1954774;28;20442;-66
2022/08/25 03:44:17;;;;;;;9.70;8.25;;;;;;;17.50;100.00;101316.13;1954923;28;20404;-66
2022/08/25 03:45:17;;;;;;;11.15;8.52;;;;;;;17.53;100.00;101322.13;1948020;28;20039;-66
2022/08/25 03:46:26;;;;;;;;;;;;;;;17.43;100.00;101317.44;1948290;28;20030;-66
2022/08/25 03:47:25;;;;;;;12.82;9.05;;;;;;;17.38;100.00;101316.88;1947767;28;20787;-66
2022/08/25 03:48:22;;;;;;;10.95;8.95;;;;;;;17.46;100.00;101314.63;1947837;28;20530;-66
2022/08/25 03:49:22;;;;;;;10.43;8.63;;;;;;;17.50;100.00;101316.13;1954777;28;20031;-66
2022/08/25 03:50:21;;;;;;;10.25;8.77;;;;;;;17.54;100.00;101321.16;1954902;28;20064;-66
2022/08/25 03:51:28;;;;;;;13.90;9.20;;;;;;;17.55;99.79;101312.31;1947985;28;20042;-66
2022/08/25 03:52:25;;;;;;;11.73;9.45;;;;;;;17.55;99.59;101312.31;1947928;28;20050;-66
2022/08/25 03:53:23;;;;;;;10.30;9.30;;;;;;;17.53;99.81;101309.78;1947766;28;20509;-66
2022/08/25 03:54:24;;;;;;;14.18;9.40;;;;;;;17.58;99.01;101315.59;1947748;28;20072;-66
2022/08/25 03:55:24;;;;;;;15.13;9.68;;;;;;;17.57;98.65;101307.78;1947675;28;20058;-66
2022/08/25 03:56:21;;;;;;;14.57;9.88;;;;;;;17.56;98.90;101306.09;1947832;28;20494;-66
2022/08/25 03:57:19;;;;;;;16.33;9.45;;;;;;;17.55;98.36;101307.06;1944754;28;20024;-66
2022/08/25 03:58:16;;;;;;;10.73;8.90;;;;;;;17.58;98.03;101307.69;1947171;29;20031;-66
2022/08/25 03:59:14;;;;;;;12.90;8.68;;;;;;;17.60;98.29;101315.50;1947729;29;20109;-66
2022/08/25 04:00:12;;;;;;;13.05;9.15;;;;;;;17.59;98.11;101305.91;1947083;28;20031;-66
2022/08/25 04:01:10;;;;;;;15.82;8.50;;;;;;;17.57;98.63;101299.88;1947161;29;20035;-66
2022/08/25 04:02:08;;;;;;;13.05;8.63;;;;;;;17.56;98.54;101306.09;1947707;28;20086;-66
2022/08/25 04:03:05;;;;;;;10.77;8.57;;;;;;;17.55;98.82;101304.41;1947798;28;20035;-66
2022/08/25 04:04:04;;;;;;;10.10;8.50;;;;;;;17.56;98.94;101303.47;1947620;28;20175;-66
2022/08/25 04:05:03;;;;;;;12.73;8.95;;;;;;;17.56;99.06;101308.72;1947709;28;20402;-65
2022/08/25 04:06:06;;;;;;;11.80;9.85;;;;;;;17.52;97.56;101291.41;1947642;28;20034;-65
2022/08/25 04:07:03;;;;;;;10.43;9.32;;;;;;;17.55;98.14;101296.50;1947662;28;20027;-65
2022/08/25 04:08:01;;;;;;;11.77;8.60;;;;;;;17.54;97.81;101294.78;1947810;28;20388;-65
2022/08/25 04:08:59;;;;;;;15.50;9.32;;;;;;;17.53;98.20;101295.75;1947645;28;20031;-66
2022/08/25 04:09:56;;;;;;;11.13;8.85;;;;;;;17.54;98.27;101295.63;1947605;28;20034;-65
2022/08/25 04:10:54;;;;;;;12.70;9.18;;;;;;;17.52;98.41;101289.63;1946986;29;20033;-65
2022/08/25 04:11:51;;;;;;;9.68;8.38;;;;;;;17.50;98.60;101292.38;1954621;28;20015;-65
2022/08/25 04:12:49;;;;;;;15.20;8.75;;;;;;;17.53;98.17;101293.09;1954460;28;20026;-65
2022/08/25 04:13:47;;;;;;;10.68;9.13;;;;;;;17.52;98.12;101286.13;1954680;28;20027;-65
2022/08/25 04:14:45;;;;;;;12.27;9.18;;;;;;;17.44;98.58;101290.13;1948228;28;20033;-66
2022/08/25 04:15:42;;;;;;;11.13;9.98;;;;;;;17.44;98.13;101295.38;1947629;28;20046;-65
2022/08/25 04:16:40;;;;;;;11.07;9.15;;;;;;;17.39;97.96;101292.22;1947563;28;20098;-66
2022/08/25 04:17:39;;;;;;;14.18;9.38;;;;;;;17.43;98.19;101298.97;1947782;28;20023;-65
2022/08/25 04:18:36;;;;;;;12.30;9.77;;;;;;;17.38;98.44;101301.03;1947567;28;20106;-66
2022/08/25 04:19:34;;;;;;;11.00;9.10;;;;;;;17.36;98.53;101300.31;1947611;28;20039;-65
2022/08/25 04:20:32;;;;;;;10.07;8.73;;;;;;;17.40;97.84;101303.59;1947534;28;20059;-65
2022/08/25 04:21:29;;;;;;;10.38;8.85;;;;;;;17.41;97.64;101300.03;1954608;28;20054;-65
2022/08/25 04:22:27;;;;;;;12.05;8.88;;;;;;;17.41;97.62;101307.94;1954623;28;20031;-65
2022/08/25 04:23:24;;;;;;;14.38;9.40;;;;;;;17.39;97.82;101305.41;1948190;28;20399;-65
2022/08/25 04:24:22;;;;;;;14.63;9.10;;;;;;;17.38;97.51;101306.31;1947623;28;20395;-65
2022/08/25 04:25:19;;;;;;;13.23;9.35;;;;;;;17.38;97.17;101301.03;1947513;28;20483;-65
2022/08/25 04:26:18;;;;;;;11.30;8.73;;;;;;;17.39;97.45;101302.75;1947657;28;20443;-65
2022/08/25 04:27:16;;;;;;;13.88;8.73;;;;;;;17.36;97.52;101298.53;1945159;28;20055;-66
2022/08/25 04:28:13;;;;;;;11.45;8.88;;;;;;;17.35;97.44;101298.63;1947569;28;20398;-66
2022/08/25 04:29:13;;;;;;;10.82;9.25;;;;;;;17.34;97.51;101295.13;1954387;28;20063;-65
2022/08/25 04:30:12;;;;;;;11.98;9.07;;;;;;;17.33;97.31;101301.38;1954472;28;20030;-65
2022/08/25 04:31:13;;;;;;;10.85;9.20;;;;;;;17.30;97.42;101295.41;1947207;28;20144;-65